Byram, MS (39272)

2:43 AM CDT on July 31, 2016 (GMT -0500)
Riverbend | | Change Station

Elev 272 ft 32.19 °N, 90.25 °W | Updated 36 seconds ago

Clear
Clear
72.3 °F
Feels Like 72.3 °F
N
1.1
Wind Variable Wind from SW
Gusts 2.5 mph

Today
High -- | Low -- °F
--% Chance of Precip.
Yesterday
High -- | Low -- °F
Precip. -- in
Pressure 29.99 in
Visibility 10.0 miles
Clouds Clear
Dew Point 72 °F
Humidity 98%
Rainfall 0.18 in
Snow Depth Not available.
6:15 AM 7:58 PM
Waning Crescent, 8% visible
METAR KJVW 310735Z AUTO 13003KT 10SM CLR 22/19 A2999 RMK AO2
Pressure 29.99 in
Visibility 10.0 miles
Clouds Clear
Dew Point 72 °F
Humidity 98%
Rainfall 0.18 in
Snow Depth Not available.
6:15 AM 7:58 PM
Waning Crescent, 8% visible
METAR KJVW 310735Z AUTO 13003KT 10SM CLR 22/19 A2999 RMK AO2

10-Day Weather Forecast

Almanac

Astronomy

Jul. 31, 2016 Rise Set
Actual Time
Civil Twilight
Nautical Twilight
Astronomical Twilight
Moon
Length of Visible Light
Length of Day
Tomorrow will be .
, % of the Moon is Illuminated

Today's Extremes

State Highs State Lows

Community

WunderPhotos

Upload Photos

1,928,768 photos uploaded!

WunderBlog® & News

Nearby

Air Quality

  Air Quality AQ Index Pollutant
Not available.

Snow Depth

Station Depth Elevation

Earthquake Activity

City Distance Mag. Time & Date
Minimum magnitude displayed is 2.5.

Coastal Water Temperatures

Place Temperature

Stations

Nearby Weather Stations

Station Location Temp. Windchill Dew Point Humidity Wind Precip. Elev Updated Type
                   

Watches & Warnings

There are currently no watches in effect.